Time;durP1;ratioP1;P1;durP2;ratioP2;P2;SDS_P1;SDS_P2;PMS_P1;PMS_P2;Temp;Humidity;BMP_temperature;BMP_pressure;BME280_temperature;BME280_humidity;BME280_pressure;Samples;Min_cycle;Max_cycle;Signal;HPM_P1;HPM_P2
2022/07/19 00:01:12;;;;;;;6.50;4.15;;;19.40;99.90;;;;;;5055367;28;20177;-82
2022/07/19 00:03:38;;;;;;;9.27;4.28;;;19.30;99.90;;;;;;5065309;28;20036;-81
2022/07/19 00:06:03;;;;;;;6.93;4.50;;;19.30;99.90;;;;;;5105326;28;20044;-82
2022/07/19 00:08:32;;;;;;;8.45;4.45;;;19.30;99.90;;;;;;5083058;28;20395;-82
2022/07/19 00:10:58;;;;;;;9.40;4.50;;;19.20;99.90;;;;;;5067761;28;20036;-82
2022/07/19 00:13:23;;;;;;;8.07;4.35;;;19.20;99.90;;;;;;5088340;28;20121;-81
2022/07/19 00:15:49;;;;;;;8.13;4.25;;;19.20;99.90;;;;;;5088263;28;20102;-82
2022/07/19 00:18:15;;;;;;;8.20;5.20;;;19.10;99.90;;;;;;5079521;28;20038;-81
2022/07/19 00:20:41;;;;;;;8.55;4.40;;;19.10;99.90;;;;;;5068112;28;20051;-81
2022/07/19 00:23:06;;;;;;;7.35;4.32;;;19.10;99.90;;;;;;5073507;28;20036;-82
2022/07/19 00:25:32;;;;;;;9.50;4.72;;;19.00;99.90;;;;;;5083495;28;20044;-82
2022/07/19 00:27:57;;;;;;;10.63;4.85;;;19.00;99.90;;;;;;5093312;28;20040;-82
2022/07/19 00:30:23;;;;;;;8.55;4.88;;;19.30;99.90;;;;;;5100016;28;20048;-81
2022/07/19 00:32:49;;;;;;;8.18;4.70;;;19.00;99.90;;;;;;5077698;28;20040;-82
2022/07/19 00:35:14;;;;;;;8.02;4.72;;;18.90;99.90;;;;;;5109519;28;20452;-81
2022/07/19 00:37:40;;;;;;;8.57;5.43;;;18.90;99.90;;;;;;5054428;28;20119;-81
2022/07/19 00:40:06;;;;;;;7.22;4.63;;;18.80;99.90;;;;;;5054618;28;20056;-81
2022/07/19 00:42:35;;;;;;;8.13;5.10;;;18.80;99.90;;;;;;5083006;28;20491;-81
2022/07/19 00:45:02;;;;;;;9.07;5.32;;;18.80;99.90;;;;;;5061938;28;20059;-81
2022/07/19 00:47:27;;;;;;;8.70;4.80;;;18.80;99.90;;;;;;5076122;28;20044;-81
2022/07/19 00:49:53;;;;;;;13.98;5.38;;;18.80;99.90;;;;;;5093036;28;20468;-81
2022/07/19 00:52:20;;;;;;;8.98;5.00;;;18.70;99.90;;;;;;5094033;27;20074;-81
2022/07/19 00:54:46;;;;;;;10.35;4.85;;;18.70;99.90;;;;;;5072603;28;20098;-81
2022/07/19 00:57:14;;;;;;;9.68;5.45;;;18.70;99.90;;;;;;5072291;28;20115;-81
2022/07/19 00:59:43;;;;;;;7.88;4.95;;;18.70;99.90;;;;;;5089370;28;20038;-80
2022/07/19 01:02:11;;;;;;;9.00;5.53;;;18.60;99.90;;;;;;5096285;28;20504;-81
2022/07/19 01:04:37;;;;;;;10.27;5.07;;;18.60;99.90;;;;;;5077658;28;20128;-81
2022/07/19 01:07:03;;;;;;;7.93;4.82;;;18.60;99.90;;;;;;5087402;28;20052;-81
2022/07/19 01:09:30;;;;;;;11.15;4.63;;;18.50;99.90;;;;;;5059344;28;20036;-81
2022/07/19 01:11:56;;;;;;;8.82;5.40;;;18.50;99.90;;;;;;5054129;28;20081;-81
2022/07/19 01:14:22;;;;;;;10.38;5.00;;;18.50;99.90;;;;;;5082042;28;20050;-81
2022/07/19 01:16:49;;;;;;;7.50;4.82;;;18.50;99.90;;;;;;5100595;28;20395;-82
2022/07/19 01:19:14;;;;;;;8.25;4.65;;;18.40;99.90;;;;;;5088044;28;20048;-81
2022/07/19 01:21:40;;;;;;;10.43;5.28;;;18.40;99.90;;;;;;5057924;28;20560;-81
2022/07/19 01:24:06;;;;;;;7.97;5.20;;;18.40;99.90;;;;;;5072100;28;20119;-81
2022/07/19 01:26:32;;;;;;;8.60;4.70;;;18.30;99.90;;;;;;5079235;28;20051;-82
2022/07/19 01:28:57;;;;;;;9.60;5.00;;;18.30;99.90;;;;;;5055257;28;20051;-81
2022/07/19 01:31:23;;;;;;;11.27;5.90;;;18.30;99.90;;;;;;5073008;28;20036;-82
2022/07/19 01:33:48;;;;;;;9.15;5.93;;;18.30;99.90;;;;;;5062587;28;20183;-82
2022/07/19 01:36:14;;;;;;;10.55;5.35;;;18.20;99.90;;;;;;5089014;28;20051;-82
2022/07/19 01:38:40;;;;;;;12.05;5.18;;;18.20;99.90;;;;;;5086414;28;20045;-82
2022/07/19 01:41:06;;;;;;;7.18;4.65;;;18.20;99.90;;;;;;5071767;28;20131;-81
2022/07/19 01:43:33;;;;;;;8.13;4.90;;;18.20;99.90;;;;;;5062877;28;20511;-82
2022/07/19 01:45:59;;;;;;;9.40;5.10;;;18.10;99.90;;;;;;5111078;28;20505;-82
2022/07/19 01:48:25;;;;;;;9.45;5.30;;;18.10;99.90;;;;;;5059465;28;20123;-82
2022/07/19 01:50:50;;;;;;;10.88;5.78;;;18.10;99.90;;;;;;5086112;28;20135;-81
2022/07/19 01:53:17;;;;;;;11.27;4.95;;;17.90;99.90;;;;;;5053741;28;20142;-81
2022/07/19 01:55:43;;;;;;;9.27;5.13;;;18.00;99.90;;;;;;5058243;28;20046;-81
2022/07/19 01:58:09;;;;;;;8.90;5.22;;;18.00;99.90;;;;;;5090113;28;20127;-81
2022/07/19 02:00:34;;;;;;;8.63;4.97;;;17.90;99.90;;;;;;5077487;28;20127;-81
2022/07/19 02:03:00;;;;;;;8.52;5.47;;;17.90;99.90;;;;;;5075266;28;20087;-82
2022/07/19 02:05:26;;;;;;;8.35;4.75;;;17.90;99.90;;;;;;5071070;28;20044;-81
2022/07/19 02:07:51;;;;;;;10.45;5.38;;;17.90;99.90;;;;;;5078347;28;20492;-81
2022/07/19 02:10:20;;;;;;;10.88;5.25;;;17.90;99.90;;;;;;5074397;28;20040;-82
2022/07/19 02:12:46;;;;;;;8.38;5.20;;;17.90;99.90;;;;;;5079939;28;20063;-81
2022/07/19 02:15:12;;;;;;;9.57;6.32;;;17.90;99.90;;;;;;5070762;28;20040;-81
2022/07/19 02:17:38;;;;;;;10.82;5.85;;;17.80;99.90;;;;;;5072123;28;20039;-82
2022/07/19 02:20:04;;;;;;;11.65;5.35;;;17.80;99.90;;;;;;5086379;28;20399;-81
2022/07/19 02:22:30;;;;;;;8.80;5.57;;;17.80;99.90;;;;;;5071704;28;20062;-81
2022/07/19 02:24:56;;;;;;;9.05;5.35;;;17.80;99.90;;;;;;5090376;28;20047;-81
2022/07/19 02:27:22;;;;;;;8.32;4.63;;;17.80;99.90;;;;;;5093499;28;20066;-81
2022/07/19 02:29:48;;;;;;;9.32;5.07;;;17.80;99.90;;;;;;5067207;28;20048;-81
2022/07/19 02:32:14;;;;;;;9.98;5.05;;;17.70;99.90;;;;;;5072077;28;20083;-81
2022/07/19 02:34:40;;;;;;;10.98;5.38;;;17.70;99.90;;;;;;5077115;28;20060;-80
2022/07/19 02:37:06;;;;;;;9.98;5.15;;;17.70;99.90;;;;;;5068252;28;20040;-81
2022/07/19 02:39:32;;;;;;;9.75;5.50;;;17.70;99.90;;;;;;5063939;28;20040;-80
2022/07/19 02:41:57;;;;;;;9.95;5.40;;;17.70;99.90;;;;;;5102833;28;20673;-81
2022/07/19 02:44:23;;;;;;;8.90;5.05;;;17.70;99.90;;;;;;5051808;28;20052;-81
2022/07/19 02:46:49;;;;;;;11.20;6.13;;;17.70;99.90;;;;;;5077343;28;20362;-81
2022/07/19 02:49:15;;;;;;;8.32;4.78;;;17.70;99.90;;;;;;5052757;28;20040;-81
2022/07/19 02:51:41;;;;;;;8.85;5.20;;;17.60;99.90;;;;;;5070105;28;20051;-81
2022/07/19 02:54:07;;;;;;;11.43;6.20;;;17.60;99.90;;;;;;5072836;28;20475;-81
2022/07/19 02:56:32;;;;;;;8.68;5.22;;;17.60;99.90;;;;;;5091000;28;20741;-81
2022/07/19 02:58:58;;;;;;;10.40;5.88;;;17.60;99.90;;;;;;5071282;28;20406;-81
2022/07/19 03:01:24;;;;;;;9.48;5.43;;;17.70;99.90;;;;;;5087513;28;20046;-81
2022/07/19 03:03:50;;;;;;;11.35;6.22;;;17.60;99.90;;;;;;5101444;28;20041;-81
2022/07/19 03:06:18;;;;;;;12.20;6.65;;;17.60;99.90;;;;;;5051756;28;20044;-81
2022/07/19 03:08:45;;;;;;;10.48;6.00;;;17.50;99.90;;;;;;5070488;28;20127;-82
2022/07/19 03:11:11;;;;;;;10.63;6.18;;;17.50;99.90;;;;;;5070314;28;20059;-81
2022/07/19 03:13:37;;;;;;;10.88;6.30;;;17.70;99.90;;;;;;5088432;28;20047;-81
2022/07/19 03:16:02;;;;;;;11.95;5.85;;;17.50;99.90;;;;;;5085316;28;20036;-81
2022/07/19 03:18:28;;;;;;;10.02;6.30;;;17.50;99.90;;;;;;5056573;28;20107;-81
2022/07/19 03:20:55;;;;;;;9.65;5.55;;;17.50;99.90;;;;;;5086987;28;20047;-81
2022/07/19 03:23:21;;;;;;;8.48;5.20;;;17.50;99.90;;;;;;5115196;28;20100;-81
2022/07/19 03:25:50;;;;;;;9.57;5.88;;;17.50;99.90;;;;;;5086636;28;20051;-81
2022/07/19 03:28:15;;;;;;;9.57;5.88;;;17.70;99.90;;;;;;5093987;28;20391;-81
2022/07/19 03:30:41;;;;;;;10.05;6.05;;;17.50;99.90;;;;;;5086864;28;20053;-81
2022/07/19 03:33:07;;;;;;;10.65;5.43;;;17.50;99.90;;;;;;5095058;28;20506;-81
2022/07/19 03:35:32;;;;;;;9.23;5.80;;;17.50;99.90;;;;;;5075373;28;20471;-81
2022/07/19 03:37:58;;;;;;;9.82;5.40;;;17.50;99.90;;;;;;5081385;28;20036;-81
2022/07/19 03:40:23;;;;;;;11.05;5.70;;;17.50;99.90;;;;;;5056094;28;20052;-81
2022/07/19 03:42:52;;;;;;;10.18;5.63;;;17.50;99.90;;;;;;5075818;28;20043;-81
2022/07/19 03:45:18;;;;;;;11.07;5.68;;;17.50;99.90;;;;;;5085393;28;20181;-81
2022/07/19 03:47:44;;;;;;;9.98;5.38;;;17.50;99.90;;;;;;5073389;28;20395;-81
2022/07/19 03:50:09;;;;;;;10.55;5.25;;;17.50;99.90;;;;;;5066279;28;20041;-81
2022/07/19 03:52:35;;;;;;;10.20;5.50;;;17.40;99.90;;;;;;5114691;28;20118;-81
2022/07/19 03:55:01;;;;;;;9.60;6.00;;;17.50;99.90;;;;;;5083607;28;20534;-81
2022/07/19 03:57:26;;;;;;;10.00;5.45;;;17.50;99.90;;;;;;5073896;28;20032;-81
2022/07/19 03:59:52;;;;;;;7.72;5.50;;;17.40;99.90;;;;;;5066567;28;20043;-81
2022/07/19 04:02:17;;;;;;;10.73;5.40;;;17.50;99.90;;;;;;5073442;28;20420;-81
2022/07/19 04:04:43;;;;;;;9.80;5.22;;;17.50;99.90;;;;;;5073737;28;20041;-81
2022/07/19 04:07:09;;;;;;;10.40;5.63;;;17.40;99.90;;;;;;5089627;28;20052;-81
2022/07/19 04:09:35;;;;;;;8.70;5.40;;;17.40;99.90;;;;;;5054707;28;20403;-81
2022/07/19 04:12:01;;;;;;;11.00;5.25;;;17.50;99.90;;;;;;5062825;28;20047;-81
2022/07/19 04:14:28;;;;;;;11.00;5.55;;;17.50;99.90;;;;;;5094347;28;20460;-80
2022/07/19 04:16:53;;;;;;;8.10;5.40;;;17.40;99.90;;;;;;5072880;28;20035;-81
2022/07/19 04:19:19;;;;;;;11.25;5.93;;;17.50;99.90;;;;;;5079318;28;20044;-81
2022/07/19 04:21:45;;;;;;;8.55;5.38;;;17.50;99.90;;;;;;5104943;27;20056;-81
2022/07/19 04:24:10;;;;;;;7.18;4.97;;;17.50;99.90;;;;;;5082774;28;20059;-81
2022/07/19 04:26:36;;;;;;;10.90;5.82;;;17.40;99.90;;;;;;5054992;28;20040;-81
2022/07/19 04:29:01;;;;;;;10.18;5.93;;;17.60;99.90;;;;;;5074058;28;20068;-81
2022/07/19 04:31:27;;;;;;;9.23;5.18;;;17.50;99.90;;;;;;5087735;28;20033;-81
2022/07/19 04:33:53;;;;;;;7.88;5.38;;;17.50;99.90;;;;;;5072458;28;20094;-81
2022/07/19 04:36:18;;;;;;;9.25;4.88;;;17.50;99.90;;;;;;5084175;28;20044;-81
2022/07/19 04:38:44;;;;;;;8.45;4.97;;;17.50;99.90;;;;;;5090432;28;20041;-81
2022/07/19 04:41:09;;;;;;;11.02;5.18;;;17.50;99.90;;;;;;5073614;28;20054;-80
2022/07/19 04:43:35;;;;;;;9.93;5.72;;;17.70;99.90;;;;;;5088090;28;20028;-80
2022/07/19 04:46:00;;;;;;;10.27;5.40;;;17.60;99.90;;;;;;5093289;28;20114;-80
2022/07/19 04:48:29;;;;;;;11.00;5.50;;;17.60;99.90;;;;;;5086255;28;20049;-81
2022/07/19 04:50:55;;;;;;;8.20;4.82;;;17.60;99.90;;;;;;5094435;28;20043;-81
2022/07/19 04:53:20;;;;;;;9.77;5.50;;;17.60;99.90;;;;;;5066320;28;20055;-81
2022/07/19 04:55:46;;;;;;;10.60;5.00;;;17.60;99.90;;;;;;5099338;28;20412;-81
2022/07/19 04:58:12;;;;;;;9.02;5.28;;;17.70;99.90;;;;;;5082296;28;20040;-81
2022/07/19 05:00:37;;;;;;;8.38;5.35;;;17.70;99.90;;;;;;5090036;28;20049;-81
2022/07/19 05:03:05;;;;;;;9.32;5.53;;;17.70;99.90;;;;;;5085359;28;20032;-81
2022/07/19 05:05:31;;;;;;;11.30;5.25;;;17.70;99.90;;;;;;5072298;28;20401;-81
2022/07/19 05:07:56;;;;;;;11.13;5.43;;;17.80;99.90;;;;;;5076052;28;20475;-82
2022/07/19 05:10:22;;;;;;;8.55;5.90;;;17.80;99.90;;;;;;5074354;28;20059;-82
2022/07/19 05:12:50;;;;;;;9.00;5.47;;;17.90;99.90;;;;;;5089258;28;20198;-82
2022/07/19 05:15:17;;;;;;;14.15;5.72;;;17.90;99.90;;;;;;5106577;28;20122;-81
2022/07/19 05:17:43;;;;;;;11.52;6.07;;;18.00;99.90;;;;;;5101419;28;20096;-82
2022/07/19 05:20:10;;;;;;;8.10;4.97;;;18.10;99.90;;;;;;5064313;28;20058;-81
2022/07/19 05:22:37;;;;;;;11.15;5.20;;;18.10;99.90;;;;;;5073354;28;20067;-82
2022/07/19 05:25:03;;;;;;;8.52;4.60;;;18.10;99.90;;;;;;5053649;28;20123;-82
2022/07/19 05:27:28;;;;;;;8.15;4.82;;;18.20;99.90;;;;;;5071306;28;20124;-81
2022/07/19 05:29:54;;;;;;;7.55;4.55;;;18.20;99.90;;;;;;5093016;28;20119;-80
2022/07/19 05:32:20;;;;;;;7.10;4.75;;;18.30;99.90;;;;;;5097090;28;20055;-81
2022/07/19 05:34:45;;;;;;;8.88;4.90;;;18.30;99.90;;;;;;5082259;28;20491;-83
2022/07/19 05:37:14;;;;;;;8.75;5.25;;;18.40;99.90;;;;;;5070971;28;20415;-82
2022/07/19 05:39:40;;;;;;;8.70;5.60;;;18.40;99.90;;;;;;5071888;28;20131;-83
2022/07/19 05:42:05;;;;;;;9.20;5.30;;;18.50;99.90;;;;;;5089054;28;20123;-80
2022/07/19 05:44:31;;;;;;;10.73;4.93;;;18.40;99.90;;;;;;5071073;28;20044;-80
2022/07/19 05:46:57;;;;;;;9.07;5.15;;;18.70;99.90;;;;;;5088334;28;20111;-83
2022/07/19 05:49:22;;;;;;;13.20;5.88;;;18.60;99.90;;;;;;5088074;28;20479;-84
2022/07/19 05:51:48;;;;;;;10.48;5.45;;;18.70;99.90;;;;;;5054778;28;20059;-85
2022/07/19 05:54:13;;;;;;;12.65;5.78;;;18.80;99.90;;;;;;5054078;28;20500;-84
2022/07/19 05:56:39;;;;;;;11.30;5.93;;;18.80;99.90;;;;;;5080486;28;20391;-81
2022/07/19 05:59:05;;;;;;;8.77;5.25;;;19.00;99.90;;;;;;5077204;28;20057;-83
2022/07/19 06:01:30;;;;;;;9.48;5.93;;;18.90;99.90;;;;;;5075454;28;20077;-83
2022/07/19 06:03:58;;;;;;;12.70;5.63;;;19.00;99.90;;;;;;5067978;28;20044;-82
2022/07/19 06:06:27;;;;;;;11.38;5.82;;;18.90;99.90;;;;;;5091251;28;20492;-83
2022/07/19 06:08:53;;;;;;;11.75;5.65;;;19.10;99.90;;;;;;5098048;28;20044;-83
2022/07/19 06:11:19;;;;;;;10.13;5.82;;;19.10;99.90;;;;;;5086956;28;20097;-83
2022/07/19 06:13:46;;;;;;;10.43;5.70;;;19.40;99.90;;;;;;5074001;28;20047;-83
2022/07/19 06:16:12;;;;;;;12.38;6.35;;;19.20;99.90;;;;;;5105298;28;20036;-82
2022/07/19 06:18:38;;;;;;;11.50;5.90;;;19.40;99.90;;;;;;5071351;28;20463;-85
2022/07/19 06:21:16;;;;;;;11.82;4.60;;;19.40;99.90;;;;;;5085299;28;20071;-87
2022/07/19 06:23:42;;;;;;;12.68;5.35;;;19.50;99.90;;;;;;5082984;28;20038;-86
2022/07/19 06:26:09;;;;;;;8.95;5.15;;;19.50;99.90;;;;;;5078222;28;20476;-91
2022/07/19 06:28:36;;;;;;;9.68;5.47;;;19.60;99.90;;;;;;5094872;27;20075;-92
2022/07/19 06:31:02;;;;;;;10.60;5.35;;;19.60;99.90;;;;;;5111221;27;20044;-76
2022/07/19 06:33:28;;;;;;;12.40;5.53;;;19.70;99.90;;;;;;5099254;28;20415;-79
2022/07/19 06:35:53;;;;;;;9.65;5.13;;;19.80;99.90;;;;;;5098143;28;20043;-88
2022/07/19 06:38:19;;;;;;;8.13;5.20;;;19.90;99.90;;;;;;5087783;28;20035;-89
2022/07/19 06:40:45;;;;;;;11.27;5.28;;;20.10;99.90;;;;;;5111911;28;20066;-88
2022/07/19 06:43:11;;;;;;;12.20;5.53;;;20.40;99.90;;;;;;5111595;28;20448;-88
2022/07/19 06:45:37;;;;;;;9.70;4.97;;;20.40;99.90;;;;;;5103026;27;20040;-89
2022/07/19 06:48:03;;;;;;;9.30;4.90;;;20.20;99.90;;;;;;5070394;28;20036;-89
2022/07/19 06:50:29;;;;;;;11.35;4.55;;;20.30;99.90;;;;;;5077940;28;20044;-89
2022/07/19 06:52:54;;;;;;;8.77;5.05;;;20.30;99.90;;;;;;5071920;28;20040;-89
2022/07/19 06:55:20;;;;;;;8.85;4.80;;;20.40;99.90;;;;;;5053142;28;20049;-89
2022/07/19 06:57:46;;;;;;;8.63;3.72;;;20.60;99.90;;;;;;5056981;28;20048;-89
2022/07/19 07:00:13;;;;;;;9.23;4.30;;;21.10;99.90;;;;;;5086557;28;20044;-85
2022/07/19 07:02:42;;;;;;;9.38;4.55;;;20.70;99.90;;;;;;5079884;28;20047;-85
2022/07/19 07:05:10;;;;;;;8.65;3.63;;;20.80;99.90;;;;;;5084360;28;20044;-85
2022/07/19 07:07:36;;;;;;;7.75;4.25;;;20.90;99.90;;;;;;5076288;28;20395;-85
2022/07/19 07:10:04;;;;;;;7.72;4.32;;;21.00;99.90;;;;;;5072626;28;20121;-85
2022/07/19 07:12:29;;;;;;;10.48;4.07;;;21.10;99.90;;;;;;5083476;28;20060;-85
2022/07/19 07:14:55;;;;;;;9.40;5.03;;;21.30;99.90;;;;;;5073094;28;20487;-86
2022/07/19 07:17:21;;;;;;;8.75;4.35;;;21.70;99.90;;;;;;5081962;28;20055;-87
2022/07/19 07:19:46;;;;;;;9.38;4.40;;;21.70;99.90;;;;;;5086701;28;20048;-86
2022/07/19 07:22:12;;;;;;;9.07;4.35;;;21.90;99.90;;;;;;5072858;28;20063;-86
2022/07/19 07:24:38;;;;;;;11.25;4.20;;;22.00;99.90;;;;;;5083237;28;20426;-86
2022/07/19 07:27:04;;;;;;;9.25;3.83;;;22.20;99.90;;;;;;5070803;28;20044;-88
2022/07/19 07:29:29;;;;;;;10.82;3.95;;;22.60;99.90;;;;;;5086286;28;20036;-88
2022/07/19 07:31:55;;;;;;;10.48;4.20;;;22.90;99.90;;;;;;5058170;28;20053;-89
2022/07/19 07:34:21;;;;;;;6.43;3.58;;;23.10;99.90;;;;;;5058264;28;20052;-88
2022/07/19 07:36:46;;;;;;;6.43;3.72;;;23.40;99.90;;;;;;5075907;28;20037;-88
2022/07/19 07:39:12;;;;;;;10.85;4.20;;;23.60;99.90;;;;;;5074857;28;20391;-89
2022/07/19 07:41:38;;;;;;;13.63;4.35;;;23.80;99.90;;;;;;5070013;28;20050;-89
2022/07/19 07:44:04;;;;;;;9.25;3.75;;;24.00;99.90;;;;;;5061843;28;20048;-89
2022/07/19 07:46:30;;;;;;;8.98;4.25;;;24.30;99.90;;;;;;5050085;28;20060;-89
2022/07/19 07:48:56;;;;;;;8.15;3.42;;;24.40;99.90;;;;;;5067988;28;20539;-89
2022/07/19 07:51:21;;;;;;;8.50;3.83;;;24.40;99.90;;;;;;5062364;28;20127;-90
2022/07/19 07:53:47;;;;;;;10.38;4.28;;;24.90;99.90;;;;;;5063683;28;20089;-89
2022/07/19 07:56:13;;;;;;;8.65;3.72;;;25.00;99.90;;;;;;5073495;28;20041;-90
2022/07/19 07:58:38;;;;;;;6.88;3.83;;;25.20;99.90;;;;;;5070324;28;20609;-90
2022/07/19 08:01:04;;;;;;;14.32;3.60;;;25.30;99.90;;;;;;5084261;28;20522;-90
2022/07/19 08:03:29;;;;;;;9.10;3.50;;;25.40;99.90;;;;;;5077560;28;20044;-90
2022/07/19 08:05:57;;;;;;;11.20;4.05;;;25.50;99.90;;;;;;5061475;28;20048;-89
2022/07/19 08:08:26;;;;;;;7.72;3.75;;;25.70;99.90;;;;;;5056912;28;20075;-90
2022/07/19 08:10:52;;;;;;;12.48;3.92;;;25.80;99.90;;;;;;5084874;28;20049;-90
2022/07/19 08:13:18;;;;;;;12.32;3.50;;;25.90;99.90;;;;;;5100194;28;20044;-89
2022/07/19 08:15:44;;;;;;;6.25;3.33;;;26.00;99.90;;;;;;5065482;28;20498;-90
2022/07/19 08:18:10;;;;;;;8.85;3.15;;;26.20;99.90;;;;;;5063390;28;20492;-90
2022/07/19 08:20:35;;;;;;;8.38;3.67;;;26.20;99.90;;;;;;5084682;28;20547;-90
2022/07/19 08:23:01;;;;;;;6.30;3.25;;;26.30;99.90;;;;;;5077106;28;20047;-89
2022/07/19 08:25:27;;;;;;;9.18;3.58;;;26.50;99.90;;;;;;5078343;28;20376;-89
2022/07/19 08:27:52;;;;;;;10.05;3.17;;;26.60;99.90;;;;;;5079591;28;20127;-89
2022/07/19 08:30:18;;;;;;;5.85;3.22;;;26.70;99.10;;;;;;5081077;28;20032;-89
2022/07/19 08:32:44;;;;;;;9.30;3.08;;;26.90;98.60;;;;;;5087668;28;20902;-90
2022/07/19 08:35:10;;;;;;;8.05;3.13;;;27.00;98.60;;;;;;5083211;28;20052;-89
2022/07/19 08:37:36;;;;;;;5.30;2.72;;;27.10;98.10;;;;;;5075475;28;20164;-90
2022/07/19 08:40:04;;;;;;;7.10;2.80;;;27.20;98.30;;;;;;5081606;28;20082;-90
2022/07/19 08:42:30;;;;;;;7.15;2.83;;;27.30;97.90;;;;;;5077829;28;20037;-90
2022/07/19 08:45:00;;;;;;;8.02;3.15;;;27.40;97.80;;;;;;5080460;28;20043;-91
2022/07/19 08:47:27;;;;;;;8.70;3.42;;;27.50;97.60;;;;;;5079591;28;20080;-90
2022/07/19 08:49:53;;;;;;;5.57;2.50;;;27.60;96.70;;;;;;5068382;28;20067;-91
2022/07/19 08:52:19;;;;;;;7.25;3.47;;;27.90;96.50;;;;;;5095025;28;20468;-90
2022/07/19 08:54:45;;;;;;;7.38;2.78;;;27.90;96.40;;;;;;5076212;28;20084;-88
2022/07/19 08:59:55;;;;;;;4.95;2.95;;;28.10;95.20;;;;;;5075189;28;20072;-88
2022/07/19 09:02:20;;;;;;;7.07;2.90;;;28.20;95.30;;;;;;5062586;28;20137;-91
2022/07/19 09:05:00;;;;;;;4.82;2.67;;;28.30;95.10;;;;;;5085500;28;20036;-90
2022/07/19 09:07:26;;;;;;;5.85;3.03;;;28.40;94.80;;;;;;5068222;28;20211;-90
2022/07/19 09:09:52;;;;;;;6.72;2.53;;;28.50;94.60;;;;;;5073394;28;20043;-92
2022/07/19 09:12:18;;;;;;;8.27;2.70;;;28.60;93.30;;;;;;5079224;28;20040;-92
2022/07/19 09:14:53;;;;;;;8.20;2.70;;;28.90;93.00;;;;;;5078280;28;20078;-91
2022/07/19 09:17:20;;;;;;;6.07;2.38;;;29.00;92.70;;;;;;5076358;28;20415;-92
2022/07/19 09:19:49;;;;;;;6.78;2.30;;;29.10;93.60;;;;;;5079324;28;20051;-92
2022/07/19 09:22:17;;;;;;;7.05;2.72;;;29.10;93.60;;;;;;5073547;28;20045;-92
2022/07/19 09:24:45;;;;;;;7.28;2.38;;;29.20;93.60;;;;;;5072763;28;20033;-92
2022/07/19 09:27:22;;;;;;;5.45;2.25;;;29.30;93.10;;;;;;5076012;28;20182;-92
2022/07/19 09:29:53;;;;;;;7.05;2.25;;;29.30;92.50;;;;;;5058384;28;20123;-92
2022/07/19 09:32:20;;;;;;;5.80;2.35;;;29.30;92.00;;;;;;5081021;28;20044;-91
2022/07/19 09:34:55;;;;;;;6.03;2.13;;;29.60;91.40;;;;;;5076987;28;20127;-91
2022/07/19 09:37:29;;;;;;;6.32;1.90;;;29.70;90.10;;;;;;5067310;28;20090;-92
2022/07/19 09:39:56;;;;;;;;;;;29.80;88.40;;;;;;5077296;28;20036;-92
2022/07/19 09:42:24;;;;;;;5.57;1.95;;;30.10;89.20;;;;;;5070745;28;19950;-93
2022/07/19 09:45:01;;;;;;;4.90;1.92;;;30.10;90.10;;;;;;5088649;28;20040;-92
2022/07/19 09:47:37;;;;;;;6.18;2.17;;;30.20;87.30;;;;;;5074936;28;20040;-93
2022/07/19 09:50:08;;;;;;;8.95;2.28;;;30.30;86.90;;;;;;5086585;28;20044;-93
2022/07/19 09:52:35;;;;;;;5.97;2.13;;;30.30;85.90;;;;;;5077097;28;20077;-92
2022/07/19 09:55:04;;;;;;;8.65;2.13;;;30.40;85.30;;;;;;5064259;28;20045;-92
2022/07/19 09:57:35;;;;;;;5.22;2.00;;;30.50;85.70;;;;;;5093126;28;20496;-92
2022/07/19 10:00:01;;;;;;;4.80;2.30;;;30.70;82.60;;;;;;5090999;28;20040;-93
2022/07/19 10:02:29;;;;;;;6.35;2.10;;;30.90;83.50;;;;;;5086989;28;20044;-93
2022/07/19 10:04:57;;;;;;;5.47;2.40;;;31.00;84.20;;;;;;5077805;28;20051;-90
2022/07/19 10:07:23;;;;;;;7.20;2.33;;;31.10;83.60;;;;;;5075389;28;20040;-90
2022/07/19 10:09:50;;;;;;;5.22;1.95;;;31.10;82.90;;;;;;5054926;28;20033;-90
2022/07/19 10:12:16;;;;;;;7.40;2.38;;;31.20;82.10;;;;;;5062466;28;20047;-83
2022/07/19 10:14:42;;;;;;;6.57;2.15;;;31.30;80.40;;;;;;5075283;28;20044;-84
2022/07/19 10:17:17;;;;;;;6.40;2.28;;;31.40;78.00;;;;;;5082992;28;20436;-84
2022/07/19 10:19:45;;;;;;;5.28;1.80;;;31.60;77.00;;;;;;5086809;28;20036;-85
2022/07/19 10:22:12;;;;;;;6.22;2.30;;;31.70;77.90;;;;;;5077586;28;20044;-91
2022/07/19 10:24:42;;;;;;;5.05;2.15;;;31.70;78.00;;;;;;5100099;28;20089;-88
2022/07/19 10:27:08;;;;;;;5.78;2.30;;;31.70;77.10;;;;;;5088607;28;20484;-91
2022/07/19 10:29:34;;;;;;;4.85;2.00;;;31.80;76.50;;;;;;5076335;28;20052;-90
2022/07/19 10:32:08;;;;;;;3.45;2.03;;;31.90;75.50;;;;;;5091215;28;20039;-91
2022/07/19 10:34:34;;;;;;;5.80;1.90;;;32.10;76.30;;;;;;5095468;28;20399;-91
2022/07/19 10:37:00;;;;;;;8.93;2.40;;;32.10;77.70;;;;;;5078578;28;20036;-91
2022/07/19 10:39:35;;;;;;;6.32;2.17;;;32.20;76.60;;;;;;5074253;28;20761;-91
2022/07/19 10:42:21;;;;;;;6.55;2.50;;;32.20;76.00;;;;;;5074134;28;20045;-92
2022/07/19 10:44:55;;;;;;;10.38;2.00;;;32.30;72.80;;;;;;5079087;28;20066;-89
2022/07/19 10:47:22;;;;;;;5.05;1.80;;;32.30;71.90;;;;;;5075333;28;20044;-91
2022/07/19 10:49:48;;;;;;;8.25;2.20;;;32.30;73.60;;;;;;5052404;28;20555;-88
2022/07/19 10:52:29;;;;;;;6.45;2.30;;;32.30;72.70;;;;;;5073925;28;20098;-88
2022/07/19 10:55:17;;;;;;;4.22;2.10;;;32.40;72.00;;;;;;5074762;28;20047;-89
2022/07/19 10:57:43;;;;;;;4.95;1.98;;;32.50;72.70;;;;;;5059052;28;20440;-90
2022/07/19 11:00:26;;;;;;;5.07;1.83;;;32.60;72.10;;;;;;5055724;28;20044;-90
2022/07/19 11:02:53;;;;;;;5.15;2.10;;;32.80;71.60;;;;;;5058849;28;20147;-89
2022/07/19 11:05:29;;;;;;;5.22;1.60;;;32.80;72.20;;;;;;5073700;28;20098;-90
2022/07/19 11:07:56;;;;;;;4.85;2.05;;;32.80;72.70;;;;;;5060280;28;20079;-90
2022/07/19 11:10:28;;;;;;;8.63;2.08;;;32.90;73.20;;;;;;5060565;28;20556;-89
2022/07/19 11:12:55;;;;;;;5.75;1.83;;;33.00;72.00;;;;;;5059683;28;20041;-90
2022/07/19 11:15:22;;;;;;;3.92;2.00;;;33.00;72.80;;;;;;5066745;28;20511;-90
2022/07/19 11:17:57;;;;;;;5.22;2.10;;;33.10;70.30;;;;;;5072656;28;20040;-91
2022/07/19 11:20:31;;;;;;;4.13;1.70;;;33.20;69.90;;;;;;5075921;28;20085;-89
2022/07/19 11:22:58;;;;;;;4.28;1.83;;;33.20;72.10;;;;;;5078289;28;20040;-90
2022/07/19 11:25:30;;;;;;;4.47;1.90;;;33.20;71.00;;;;;;5076193;28;20032;-87
2022/07/19 11:27:56;;;;;;;5.18;1.75;;;33.30;71.90;;;;;;5085330;28;20037;-95
2022/07/19 11:30:29;;;;;;;4.53;1.80;;;33.30;69.40;;;;;;5055163;28;20112;-96
2022/07/19 11:36:28;;;;;;;8.52;2.20;;;33.40;70.80;;;;;;5084355;28;20107;-86
2022/07/19 11:39:00;;;;;;;6.15;1.80;;;33.50;68.30;;;;;;5057172;28;20072;-86
2022/07/19 11:41:30;;;;;;;6.00;2.03;;;33.70;68.90;;;;;;5083152;28;20485;-86
2022/07/19 11:44:04;;;;;;;4.68;2.00;;;33.70;68.90;;;;;;5056886;28;20048;-87
2022/07/19 11:46:42;;;;;;;6.22;1.88;;;33.70;69.70;;;;;;5079321;28;20434;-86
2022/07/19 11:49:13;;;;;;;6.97;1.95;;;33.80;68.80;;;;;;5061697;28;20154;-86
2022/07/19 11:51:41;;;;;;;5.10;1.58;;;33.90;68.80;;;;;;5083108;28;20399;-87
2022/07/19 11:54:07;;;;;;;7.47;2.05;;;33.90;67.40;;;;;;5068723;28;20059;-85
2022/07/19 11:56:35;;;;;;;5.65;1.75;;;34.00;65.00;;;;;;5042508;28;20040;-86
2022/07/19 11:59:05;;;;;;;5.53;2.05;;;34.00;65.10;;;;;;5055965;28;20036;-86
2022/07/19 12:01:33;;;;;;;7.07;1.83;;;34.00;66.10;;;;;;5057357;28;20127;-86
2022/07/19 12:04:04;;;;;;;7.82;1.98;;;34.10;65.10;;;;;;5064267;28;20037;-86
2022/07/19 12:06:50;;;;;;;6.75;1.80;;;34.10;65.90;;;;;;5067510;28;20041;-87
2022/07/19 12:09:19;;;;;;;11.55;2.10;;;34.10;64.60;;;;;;5057347;28;20136;-86
2022/07/19 12:11:47;;;;;;;7.85;1.92;;;34.10;65.70;;;;;;5056310;28;20084;-86
2022/07/19 12:14:18;;;;;;;4.95;1.75;;;34.20;63.30;;;;;;5067605;28;20835;-85
2022/07/19 12:16:44;;;;;;;6.32;1.58;;;34.30;64.40;;;;;;5088159;28;20048;-85
2022/07/19 12:19:12;;;;;;;4.03;1.40;;;34.40;66.40;;;;;;5062554;28;20044;-85
2022/07/19 12:21:38;;;;;;;4.85;1.80;;;34.50;64.40;;;;;;5063421;28;20100;-84
2022/07/19 12:24:26;;;;;;;4.88;1.83;;;34.60;65.60;;;;;;5062303;28;20068;-84
2022/07/19 12:26:55;;;;;;;6.80;2.00;;;34.60;64.90;;;;;;5061769;28;20051;-84
2022/07/19 12:29:28;;;;;;;5.22;1.65;;;34.60;66.00;;;;;;5063003;28;20491;-84
2022/07/19 12:31:59;;;;;;;7.63;1.70;;;34.60;64.30;;;;;;5060352;28;20057;-84
2022/07/19 12:34:26;;;;;;;4.13;1.50;;;34.70;62.40;;;;;;5066287;28;20397;-85
2022/07/19 12:36:52;;;;;;;4.28;1.75;;;34.90;60.80;;;;;;5097734;28;20402;-84
2022/07/19 12:39:20;;;;;;;5.35;1.90;;;35.00;60.80;;;;;;5102122;28;20052;-84
2022/07/19 12:41:56;;;;;;;5.68;1.67;;;35.10;60.50;;;;;;5066888;28;20160;-83
2022/07/19 12:44:22;;;;;;;5.38;1.80;;;35.10;61.00;;;;;;5067811;28;20067;-83
2022/07/19 12:46:47;;;;;;;6.30;1.58;;;35.20;59.60;;;;;;5055257;28;20047;-84
2022/07/19 12:49:13;;;;;;;5.93;1.58;;;35.30;58.80;;;;;;5061093;28;20052;-84
2022/07/19 12:51:43;;;;;;;3.85;1.50;;;35.20;59.40;;;;;;5065859;28;20048;-83